Time;durP1;ratioP1;P1;durP2;ratioP2;P2;SDS_P1;SDS_P2;PMS_P1;PMS_P2;Temp;Humidity;BMP_temperature;BMP_pressure;BME280_temperature;BME280_humidity;BME280_pressure;Samples;Min_cycle;Max_cycle;Signal;HPM_P1;HPM_P2
2021/12/20 00:01:33;;;;;;;28.27;13.15;;;9.00;99.90;;;;;;5085632;28;21059;-76
2021/12/20 00:03:58;;;;;;;30.63;12.27;;;9.00;99.90;;;;;;5077196;28;20040;-76
2021/12/20 00:06:24;;;;;;;30.05;13.70;;;9.00;99.90;;;;;;5083450;28;20032;-76
2021/12/20 00:08:51;;;;;;;27.83;12.57;;;9.00;99.90;;;;;;5080396;28;20048;-76
2021/12/20 00:11:16;;;;;;;26.58;12.43;;;9.10;99.90;;;;;;5081650;28;20024;-76
2021/12/20 00:13:42;;;;;;;23.42;12.85;;;9.10;99.90;;;;;;5082062;28;20043;-76
2021/12/20 00:16:08;;;;;;;31.65;12.27;;;9.00;99.90;;;;;;5082324;28;20024;-76
2021/12/20 00:18:33;;;;;;;26.13;11.93;;;9.10;99.90;;;;;;5076797;28;20475;-76
2021/12/20 00:20:59;;;;;;;22.88;11.68;;;9.00;99.90;;;;;;5080644;28;20456;-77
2021/12/20 00:23:24;;;;;;;26.00;11.55;;;9.10;99.90;;;;;;5082046;28;20442;-76
2021/12/20 00:25:50;;;;;;;24.02;12.02;;;9.10;99.90;;;;;;5081305;28;20037;-76
2021/12/20 00:28:20;;;;;;;24.65;12.65;;;9.10;99.90;;;;;;5082417;28;20040;-76
2021/12/20 00:30:46;;;;;;;27.88;11.55;;;9.10;99.90;;;;;;5082202;28;20035;-76
2021/12/20 00:33:12;;;;;;;25.27;11.07;;;9.10;99.90;;;;;;5082992;28;20377;-76
2021/12/20 00:35:38;;;;;;;23.35;10.98;;;9.00;99.90;;;;;;5080335;28;20035;-77
2021/12/20 00:40:49;;;;;;;24.48;10.65;;;8.80;99.90;;;;;;5079548;28;20118;-77
2021/12/20 00:43:15;;;;;;;25.38;10.93;;;8.90;99.90;;;;;;5081132;28;20028;-77
2021/12/20 00:45:41;;;;;;;23.00;11.25;;;8.90;99.90;;;;;;5075154;28;20024;-76
2021/12/20 00:48:07;;;;;;;21.45;10.73;;;9.00;99.90;;;;;;5080361;28;20055;-77
2021/12/20 00:50:34;;;;;;;24.00;9.63;;;9.10;99.90;;;;;;5079144;28;20488;-77
2021/12/20 00:53:00;;;;;;;22.00;9.15;;;9.10;99.90;;;;;;5083027;28;20017;-77
2021/12/20 00:55:27;;;;;;;24.63;10.30;;;9.10;99.90;;;;;;5082546;28;20449;-77
2021/12/20 00:57:58;;;;;;;17.27;10.00;;;9.10;99.90;;;;;;5081816;28;20063;-77
2021/12/20 01:00:27;;;;;;;20.67;10.02;;;9.10;99.90;;;;;;5075976;28;20103;-77
2021/12/20 01:02:53;;;;;;;22.23;8.90;;;9.00;99.90;;;;;;5080602;28;20482;-76
2021/12/20 01:05:20;;;;;;;19.48;8.02;;;9.00;99.90;;;;;;5079933;28;20431;-76
2021/12/20 01:07:46;;;;;;;18.40;8.15;;;9.00;99.90;;;;;;5081754;28;20020;-76
2021/12/20 01:10:12;;;;;;;23.20;7.63;;;9.00;99.90;;;;;;5078823;28;20090;-76
2021/12/20 01:12:48;;;;;;;18.60;7.72;;;8.90;99.90;;;;;;5081459;28;20030;-75
2021/12/20 01:15:23;;;;;;;17.92;6.80;;;9.00;99.90;;;;;;5076576;28;20031;-76
2021/12/20 01:17:49;;;;;;;16.58;7.05;;;8.90;99.90;;;;;;5080226;28;20028;-75
2021/12/20 01:20:15;;;;;;;14.65;6.40;;;9.00;99.90;;;;;;5078024;28;20103;-75
2021/12/20 01:22:43;;;;;;;13.73;5.22;;;9.00;99.90;;;;;;5077676;28;20108;-76
2021/12/20 01:25:09;;;;;;;14.10;5.50;;;8.90;99.90;;;;;;5082143;28;20539;-76
2021/12/20 01:27:35;;;;;;;12.80;5.55;;;9.00;99.90;;;;;;5078320;28;20036;-76
2021/12/20 01:30:01;;;;;;;15.07;5.10;;;8.90;99.90;;;;;;5076404;28;20101;-76
2021/12/20 01:32:27;;;;;;;21.58;6.13;;;9.00;99.90;;;;;;5079614;28;20020;-76
2021/12/20 01:34:52;;;;;;;15.25;5.55;;;9.00;99.90;;;;;;5082209;28;20036;-76
2021/12/20 01:37:18;;;;;;;19.60;5.47;;;9.00;99.90;;;;;;5081222;28;20027;-76
2021/12/20 01:39:44;;;;;;;18.88;5.40;;;8.90;99.90;;;;;;5077912;28;20028;-76
2021/12/20 01:42:15;;;;;;;17.02;5.28;;;8.90;99.90;;;;;;5081419;28;20132;-76
2021/12/20 01:44:40;;;;;;;22.00;6.15;;;8.80;99.90;;;;;;5076099;28;20056;-76
2021/12/20 01:47:07;;;;;;;19.30;5.57;;;8.90;99.90;;;;;;5078893;28;20055;-76
2021/12/20 01:49:41;;;;;;;22.95;5.97;;;8.90;99.90;;;;;;5079327;28;20032;-76
2021/12/20 01:52:13;;;;;;;16.38;5.95;;;9.00;99.90;;;;;;5075373;28;20028;-76
2021/12/20 01:54:40;;;;;;;20.17;6.03;;;8.90;99.90;;;;;;5087588;28;20024;-76
2021/12/20 01:57:06;;;;;;;16.63;4.90;;;8.90;99.90;;;;;;5083123;28;20026;-76
2021/12/20 01:59:31;;;;;;;14.68;5.15;;;8.80;99.90;;;;;;5078701;28;20043;-76
2021/12/20 02:01:57;;;;;;;17.30;5.15;;;8.80;99.90;;;;;;5079669;28;20480;-77
2021/12/20 02:04:23;;;;;;;19.23;5.78;;;8.80;99.90;;;;;;5081869;28;20032;-76
2021/12/20 02:06:50;;;;;;;16.58;5.57;;;8.90;99.90;;;;;;5081650;28;20024;-76
2021/12/20 02:09:19;;;;;;;18.40;5.97;;;9.00;99.90;;;;;;5080877;28;20043;-77
2021/12/20 02:11:49;;;;;;;19.98;6.65;;;8.90;99.90;;;;;;5085070;28;20105;-76
2021/12/20 02:14:19;;;;;;;14.77;5.32;;;9.00;99.90;;;;;;5076992;28;20029;-76
2021/12/20 02:16:45;;;;;;;17.63;5.75;;;9.00;99.90;;;;;;5083866;28;20061;-77
2021/12/20 02:19:15;;;;;;;20.83;5.00;;;9.00;99.90;;;;;;5080330;28;20059;-76
2021/12/20 02:21:44;;;;;;;22.75;5.40;;;8.90;99.90;;;;;;5082678;28;20021;-76
2021/12/20 02:24:10;;;;;;;15.88;5.55;;;8.90;99.90;;;;;;5090104;28;20024;-76
2021/12/20 02:26:36;;;;;;;22.08;6.45;;;8.90;99.90;;;;;;5078085;28;20035;-76
2021/12/20 02:29:05;;;;;;;17.42;6.07;;;8.80;99.90;;;;;;5079833;28;20032;-76
2021/12/20 02:37:27;;;;;;;21.88;5.38;;;9.00;99.90;;;;;;5081720;28;20499;-76
2021/12/20 02:39:53;;;;;;;19.48;6.13;;;9.00;99.90;;;;;;5082574;28;20476;-76
2021/12/20 02:42:24;;;;;;;25.80;6.32;;;9.00;99.90;;;;;;5078412;28;20028;-76
2021/12/20 02:45:00;;;;;;;21.27;5.63;;;8.90;99.90;;;;;;5084703;28;20031;-76
2021/12/20 02:47:29;;;;;;;16.55;5.88;;;8.90;99.90;;;;;;5084068;28;20400;-76
2021/12/20 02:49:56;;;;;;;15.40;4.75;;;8.90;99.90;;;;;;5080203;28;20043;-76
2021/12/20 02:52:22;;;;;;;19.17;5.15;;;9.00;99.90;;;;;;5082124;28;20029;-76
2021/12/20 02:54:47;;;;;;;23.83;5.72;;;9.00;99.90;;;;;;5087060;28;20559;-76
2021/12/20 02:57:13;;;;;;;20.88;6.05;;;9.00;99.90;;;;;;5084528;28;20393;-76
2021/12/20 02:59:39;;;;;;;15.02;5.07;;;9.00;99.90;;;;;;5079584;28;20031;-76
2021/12/20 03:02:07;;;;;;;16.08;5.50;;;9.00;99.90;;;;;;5078752;28;20492;-76
2021/12/20 03:04:33;;;;;;;17.77;5.05;;;9.00;99.90;;;;;;5081138;28;20063;-76
2021/12/20 03:07:03;;;;;;;17.10;5.18;;;9.00;99.90;;;;;;5078706;28;20392;-77
2021/12/20 03:09:33;;;;;;;21.02;5.45;;;9.00;99.90;;;;;;5083238;28;20074;-76
2021/12/20 03:12:01;;;;;;;24.00;5.65;;;8.90;99.90;;;;;;5083982;28;20381;-76
2021/12/20 03:14:39;;;;;;;19.98;5.32;;;9.00;99.90;;;;;;5084873;28;20035;-76
2021/12/20 03:17:06;;;;;;;17.33;5.30;;;8.90;99.90;;;;;;5079964;28;20016;-76
2021/12/20 03:19:31;;;;;;;19.63;5.70;;;8.90;99.90;;;;;;5084232;28;20032;-76
2021/12/20 03:21:58;;;;;;;26.02;5.55;;;8.90;99.90;;;;;;5084542;28;20035;-77
2021/12/20 03:24:24;;;;;;;19.35;5.40;;;8.90;99.90;;;;;;5088678;28;20028;-76
2021/12/20 03:26:49;;;;;;;10.55;4.32;;;8.90;99.90;;;;;;5085658;28;20027;-77
2021/12/20 03:29:16;;;;;;;18.80;4.95;;;8.90;99.90;;;;;;5085047;28;20720;-76
2021/12/20 03:31:42;;;;;;;12.82;4.95;;;8.90;99.90;;;;;;5081766;28;20021;-76
2021/12/20 03:34:08;;;;;;;14.15;4.90;;;8.80;99.90;;;;;;5081093;28;20044;-76
2021/12/20 03:36:34;;;;;;;18.08;5.45;;;8.90;99.90;;;;;;5089208;28;20024;-77
2021/12/20 03:39:00;;;;;;;21.95;5.28;;;8.90;99.90;;;;;;5081065;28;20043;-76
2021/12/20 03:41:26;;;;;;;16.08;4.10;;;8.90;99.90;;;;;;5084825;28;20028;-77
2021/12/20 03:43:52;;;;;;;21.33;5.60;;;8.80;99.90;;;;;;5083851;28;20038;-76
2021/12/20 03:46:18;;;;;;;22.65;4.72;;;8.80;99.90;;;;;;5085460;28;20487;-76
2021/12/20 03:48:44;;;;;;;20.77;4.28;;;8.80;99.90;;;;;;5082979;28;20091;-77
2021/12/20 03:51:09;;;;;;;19.77;3.80;;;8.80;99.90;;;;;;5086137;28;20480;-76
2021/12/20 03:53:36;;;;;;;18.98;3.97;;;8.80;99.90;;;;;;5081820;28;20021;-76
2021/12/20 03:56:03;;;;;;;17.40;3.90;;;8.70;99.90;;;;;;5086853;28;20099;-76
2021/12/20 03:58:30;;;;;;;20.60;4.10;;;8.80;99.90;;;;;;5086166;28;20023;-76
2021/12/20 04:00:58;;;;;;;16.60;4.30;;;8.80;99.90;;;;;;5088233;28;20112;-76
2021/12/20 04:03:25;;;;;;;13.32;4.05;;;8.80;99.90;;;;;;5083684;28;20036;-76
2021/12/20 04:05:51;;;;;;;17.92;4.53;;;8.80;99.90;;;;;;5085436;28;20035;-76
2021/12/20 04:08:17;;;;;;;19.92;4.68;;;8.80;99.90;;;;;;5086403;28;20039;-76
2021/12/20 04:10:43;;;;;;;19.23;3.90;;;8.80;99.90;;;;;;5084300;28;20361;-77
2021/12/20 04:13:09;;;;;;;18.92;3.45;;;8.90;99.90;;;;;;5082741;28;20035;-76
2021/12/20 04:15:36;;;;;;;21.77;3.38;;;8.80;99.90;;;;;;5075828;28;20028;-76
2021/12/20 04:18:02;;;;;;;18.67;3.78;;;8.70;99.90;;;;;;5083535;28;20035;-76
2021/12/20 04:20:28;;;;;;;24.65;4.43;;;8.60;99.90;;;;;;5084651;28;20396;-76
2021/12/20 04:22:54;;;;;;;18.80;3.95;;;8.70;99.90;;;;;;5083865;28;20031;-77
2021/12/20 04:25:19;;;;;;;23.48;3.92;;;8.70;99.90;;;;;;5080696;28;20028;-77
2021/12/20 04:27:45;;;;;;;25.77;4.00;;;8.70;99.90;;;;;;5088669;28;20082;-76
2021/12/20 04:30:11;;;;;;;23.38;3.55;;;8.80;99.90;;;;;;5082896;28;20380;-77
2021/12/20 04:32:43;;;;;;;14.75;3.50;;;8.80;99.90;;;;;;5082298;28;20013;-76
2021/12/20 04:35:11;;;;;;;17.42;3.67;;;8.80;99.90;;;;;;5084005;28;20110;-76
2021/12/20 04:37:39;;;;;;;21.35;3.88;;;8.80;99.90;;;;;;5080544;28;20020;-76
2021/12/20 04:40:06;;;;;;;18.40;3.78;;;8.80;99.90;;;;;;5088193;28;20036;-76
2021/12/20 04:42:32;;;;;;;17.90;3.83;;;8.80;99.90;;;;;;5080183;28;20040;-76
2021/12/20 04:44:58;;;;;;;21.17;3.92;;;8.80;99.90;;;;;;5082361;28;20050;-76
2021/12/20 04:47:24;;;;;;;19.33;3.95;;;8.80;99.90;;;;;;5081919;28;20028;-76
2021/12/20 04:49:50;;;;;;;16.48;3.78;;;8.70;99.90;;;;;;5087277;28;20513;-76
2021/12/20 04:52:15;;;;;;;25.55;4.40;;;8.60;99.90;;;;;;5082599;28;20552;-76
2021/12/20 04:54:41;;;;;;;20.23;3.72;;;8.70;99.90;;;;;;5085330;28;20480;-76
2021/12/20 04:57:07;;;;;;;23.25;3.78;;;8.70;99.90;;;;;;5080694;28;20035;-76
2021/12/20 04:59:33;;;;;;;18.83;3.72;;;8.60;99.90;;;;;;5082389;28;20031;-76
2021/12/20 05:01:58;;;;;;;18.35;3.25;;;8.60;99.90;;;;;;5075020;28;20033;-76
2021/12/20 05:04:24;;;;;;;16.42;3.25;;;8.70;99.90;;;;;;5083961;28;20049;-76
2021/12/20 05:06:50;;;;;;;16.75;3.67;;;8.70;99.90;;;;;;5084643;28;20028;-77
2021/12/20 05:09:18;;;;;;;16.08;3.53;;;8.60;99.90;;;;;;5081452;28;20085;-76
2021/12/20 05:11:50;;;;;;;23.33;3.92;;;8.50;99.90;;;;;;5079118;28;20024;-77
2021/12/20 05:14:17;;;;;;;29.10;3.50;;;8.60;99.90;;;;;;5083014;28;20031;-76
2021/12/20 05:16:43;;;;;;;24.52;3.70;;;8.60;99.90;;;;;;5081819;28;20024;-77
2021/12/20 05:19:08;;;;;;;27.90;3.85;;;8.50;99.90;;;;;;5081598;28;20025;-76
2021/12/20 05:21:34;;;;;;;20.90;3.95;;;8.50;99.90;;;;;;5078856;28;20370;-76
2021/12/20 05:24:00;;;;;;;18.42;3.83;;;8.60;99.90;;;;;;5081603;28;20017;-76
2021/12/20 05:26:26;;;;;;;19.90;3.45;;;8.60;99.90;;;;;;5075830;28;20385;-76
2021/12/20 05:28:54;;;;;;;18.13;2.83;;;8.60;99.90;;;;;;5081121;28;20036;-76
2021/12/20 05:31:20;;;;;;;17.48;3.65;;;8.60;99.90;;;;;;5083286;28;20077;-76
2021/12/20 05:33:46;;;;;;;18.55;3.67;;;8.50;99.90;;;;;;5081700;28;20031;-77
2021/12/20 05:36:12;;;;;;;22.40;3.50;;;8.50;99.90;;;;;;5082133;28;20028;-76
2021/12/20 05:38:38;;;;;;;18.45;3.15;;;8.50;99.90;;;;;;5084518;28;20532;-76
2021/12/20 05:41:03;;;;;;;16.67;3.45;;;8.60;99.90;;;;;;5081177;28;20041;-76
2021/12/20 05:43:29;;;;;;;20.58;4.13;;;8.60;99.90;;;;;;5083580;28;20036;-76
2021/12/20 05:45:55;;;;;;;19.40;3.88;;;8.60;99.90;;;;;;5082769;28;20535;-77
2021/12/20 05:48:21;;;;;;;22.55;3.33;;;8.60;99.90;;;;;;5079609;28;20503;-76
2021/12/20 05:50:46;;;;;;;18.63;3.63;;;8.60;99.90;;;;;;5080009;28;20495;-76
2021/12/20 05:53:12;;;;;;;21.90;3.35;;;8.60;99.90;;;;;;5075053;28;20028;-77
2021/12/20 05:55:38;;;;;;;19.90;3.85;;;8.60;99.90;;;;;;5081060;28;20119;-77
2021/12/20 05:58:03;;;;;;;22.15;3.70;;;8.60;99.90;;;;;;5082772;28;20060;-77
2021/12/20 06:00:29;;;;;;;13.98;3.00;;;8.60;99.90;;;;;;5079766;28;20086;-76
2021/12/20 06:02:55;;;;;;;22.33;3.92;;;8.60;99.90;;;;;;5079859;28;20040;-76
2021/12/20 06:05:23;;;;;;;21.48;4.18;;;8.60;99.90;;;;;;5077805;28;20073;-76
2021/12/20 06:07:49;;;;;;;19.30;3.28;;;8.60;99.90;;;;;;5080738;28;20025;-76
2021/12/20 06:10:17;;;;;;;27.77;3.58;;;8.60;99.90;;;;;;5080195;28;20024;-76
2021/12/20 06:12:44;;;;;;;20.23;4.13;;;8.50;99.90;;;;;;5084588;28;20502;-76
2021/12/20 06:15:11;;;;;;;19.23;3.45;;;8.40;99.90;;;;;;5085104;28;20032;-76
2021/12/20 06:17:37;;;;;;;23.10;3.42;;;8.50;99.90;;;;;;5077106;28;20032;-77
2021/12/20 06:20:08;;;;;;;26.08;3.92;;;8.50;99.90;;;;;;5083159;28;20025;-76
2021/12/20 06:22:34;;;;;;;19.83;4.05;;;8.50;99.90;;;;;;5079078;28;20028;-76
2021/12/20 06:25:00;;;;;;;25.05;4.20;;;8.50;99.90;;;;;;5082700;28;20025;-77
2021/12/20 06:27:25;;;;;;;21.60;3.80;;;8.50;99.90;;;;;;5081715;28;20440;-76
2021/12/20 06:29:51;;;;;;;20.92;3.38;;;8.50;99.90;;;;;;5075838;28;20037;-76
2021/12/20 06:32:17;;;;;;;21.73;4.03;;;8.50;99.90;;;;;;5082491;28;20056;-76
2021/12/20 06:34:42;;;;;;;24.05;4.10;;;8.60;99.90;;;;;;5082429;28;20520;-76
2021/12/20 06:37:09;;;;;;;23.30;3.92;;;8.60;99.90;;;;;;5081687;28;20101;-76
2021/12/20 06:39:35;;;;;;;15.20;3.78;;;8.60;99.90;;;;;;5085459;28;20048;-76
2021/12/20 06:42:00;;;;;;;21.77;4.45;;;8.60;99.90;;;;;;5076851;28;20488;-76
2021/12/20 06:44:26;;;;;;;21.45;3.20;;;8.50;99.90;;;;;;5080955;28;20031;-76
2021/12/20 06:46:52;;;;;;;25.85;4.15;;;8.50;99.90;;;;;;5081161;28;20025;-77
2021/12/20 06:49:18;;;;;;;17.48;4.65;;;8.50;99.90;;;;;;5079620;28;20112;-76
2021/12/20 06:51:44;;;;;;;19.98;4.32;;;8.40;99.90;;;;;;5079601;28;20425;-76
2021/12/20 06:54:15;;;;;;;26.35;4.35;;;8.50;99.90;;;;;;5084255;28;20077;-76
2021/12/20 06:56:42;;;;;;;15.13;3.35;;;8.50;99.90;;;;;;5083978;28;20024;-77
2021/12/20 06:59:08;;;;;;;21.73;4.13;;;8.50;99.90;;;;;;5084828;28;20027;-76
2021/12/20 07:01:34;;;;;;;23.98;4.10;;;8.50;99.90;;;;;;5079898;28;20103;-77
2021/12/20 07:04:01;;;;;;;22.67;3.75;;;8.50;99.90;;;;;;5085675;28;20032;-76
2021/12/20 07:06:28;;;;;;;28.80;4.57;;;8.50;99.90;;;;;;5084509;28;20031;-76
2021/12/20 07:08:54;;;;;;;15.75;3.95;;;8.50;99.90;;;;;;5083331;28;20081;-77
2021/12/20 07:11:19;;;;;;;32.88;4.40;;;8.50;99.90;;;;;;5082954;28;20423;-77
2021/12/20 07:13:45;;;;;;;23.65;4.25;;;8.50;99.90;;;;;;5083981;28;20033;-76
2021/12/20 07:16:12;;;;;;;24.85;4.68;;;8.50;99.90;;;;;;5085933;28;20473;-76
2021/12/20 07:18:38;;;;;;;28.83;4.50;;;8.50;99.90;;;;;;5082373;28;20047;-77
2021/12/20 07:21:04;;;;;;;23.80;5.07;;;8.50;99.90;;;;;;5081906;28;20036;-77
2021/12/20 07:23:29;;;;;;;20.63;4.13;;;8.50;99.90;;;;;;5084601;28;20028;-77
2021/12/20 07:25:55;;;;;;;23.88;3.72;;;8.50;99.90;;;;;;5078381;28;20037;-77
2021/12/20 07:28:21;;;;;;;25.35;3.45;;;8.50;99.90;;;;;;5089303;28;20059;-77
2021/12/20 07:30:48;;;;;;;25.45;4.28;;;8.40;99.90;;;;;;5086881;28;20476;-77
2021/12/20 07:33:15;;;;;;;26.73;4.63;;;8.40;99.90;;;;;;5084380;28;20032;-77
2021/12/20 07:35:44;;;;;;;30.33;4.45;;;8.40;99.90;;;;;;5086085;28;20032;-77
2021/12/20 07:38:14;;;;;;;21.63;4.07;;;8.30;99.90;;;;;;5085264;28;20048;-77
2021/12/20 07:40:48;;;;;;;32.90;4.78;;;8.30;99.90;;;;;;5084909;28;20028;-76
2021/12/20 07:43:15;;;;;;;19.77;3.78;;;8.30;99.90;;;;;;5084632;28;20143;-76
2021/12/20 07:45:42;;;;;;;24.48;4.43;;;8.30;99.90;;;;;;5088875;28;20099;-76
2021/12/20 07:48:08;;;;;;;19.55;3.97;;;8.30;99.90;;;;;;5081280;28;20036;-76
2021/12/20 07:50:34;;;;;;;20.95;3.97;;;8.30;99.90;;;;;;5085888;28;20130;-75
2021/12/20 07:53:00;;;;;;;21.20;4.15;;;8.30;99.90;;;;;;5084069;28;20116;-76
2021/12/20 07:55:26;;;;;;;22.63;3.97;;;8.30;99.90;;;;;;5077508;28;20035;-75
2021/12/20 07:57:52;;;;;;;23.15;4.80;;;8.30;99.90;;;;;;5083966;28;20119;-76
2021/12/20 08:00:18;;;;;;;29.20;4.05;;;8.40;99.90;;;;;;5083039;28;20070;-76
2021/12/20 08:02:44;;;;;;;24.42;4.57;;;8.40;99.90;;;;;;5081855;28;20036;-76
2021/12/20 08:05:14;;;;;;;25.38;4.15;;;8.30;99.90;;;;;;5086450;28;20104;-76
2021/12/20 08:07:40;;;;;;;34.83;5.40;;;8.40;99.90;;;;;;5082960;28;20020;-76
2021/12/20 08:10:08;;;;;;;17.02;3.53;;;8.40;99.90;;;;;;5083914;28;20436;-76
2021/12/20 08:12:34;;;;;;;20.67;3.80;;;8.30;99.90;;;;;;5080000;28;20028;-75
2021/12/20 08:14:59;;;;;;;18.30;3.67;;;8.30;99.90;;;;;;5084237;28;20021;-75
2021/12/20 08:17:25;;;;;;;24.55;4.07;;;8.30;99.90;;;;;;5084442;28;20020;-75
2021/12/20 08:19:51;;;;;;;23.27;3.80;;;8.30;99.90;;;;;;5087440;28;20432;-75
2021/12/20 08:22:16;;;;;;;19.65;4.50;;;8.30;99.90;;;;;;5081613;28;20043;-75
2021/12/20 08:24:42;;;;;;;16.45;3.38;;;8.30;99.90;;;;;;5086359;28;20187;-72
2021/12/20 08:27:08;;;;;;;27.33;4.25;;;8.40;99.90;;;;;;5082828;28;20036;-73
2021/12/20 08:29:33;;;;;;;22.38;2.92;;;8.30;99.90;;;;;;5085441;28;20104;-75
2021/12/20 08:32:01;;;;;;;19.75;4.07;;;8.30;99.90;;;;;;5077557;28;20431;-74
2021/12/20 08:34:28;;;;;;;20.67;3.67;;;8.30;99.90;;;;;;5083173;28;20029;-75
2021/12/20 08:36:55;;;;;;;19.48;3.95;;;8.30;99.90;;;;;;5082240;28;21405;-74
2021/12/20 08:39:21;;;;;;;26.45;4.18;;;8.20;99.90;;;;;;5081742;28;20026;-74
2021/12/20 08:41:46;;;;;;;31.60;4.63;;;8.20;99.90;;;;;;5076441;28;20107;-75
2021/12/20 08:44:13;;;;;;;23.25;4.38;;;8.20;99.90;;;;;;5083006;28;20028;-75
2021/12/20 08:46:39;;;;;;;28.92;4.47;;;8.30;99.90;;;;;;5076720;28;20029;-74
2021/12/20 08:49:06;;;;;;;29.55;4.93;;;8.30;99.90;;;;;;5084576;28;20558;-74
2021/12/20 08:51:32;;;;;;;19.60;3.92;;;8.30;99.90;;;;;;5075676;28;20027;-75
2021/12/20 08:53:58;;;;;;;27.63;4.78;;;8.30;99.90;;;;;;5081358;28;20027;-75
2021/12/20 08:56:23;;;;;;;28.38;4.88;;;8.30;99.90;;;;;;5079982;28;20028;-75
2021/12/20 08:58:49;;;;;;;23.10;4.50;;;8.40;99.90;;;;;;5081727;28;20032;-75
2021/12/20 09:01:15;;;;;;;24.33;3.90;;;8.40;99.90;;;;;;5076700;28;20027;-75
2021/12/20 09:03:40;;;;;;;16.30;3.50;;;8.30;99.90;;;;;;5079719;28;20028;-75
2021/12/20 09:06:08;;;;;;;31.52;4.63;;;8.40;99.90;;;;;;5078269;28;20024;-75
2021/12/20 09:08:34;;;;;;;22.40;4.60;;;8.40;99.90;;;;;;5082890;28;20035;-75
2021/12/20 09:11:00;;;;;;;22.33;4.95;;;8.50;99.90;;;;;;5085155;28;20708;-74
2021/12/20 09:13:26;;;;;;;27.88;5.63;;;8.50;99.90;;;;;;5083079;28;20022;-75
2021/12/20 09:15:55;;;;;;;30.63;5.18;;;8.50;99.90;;;;;;5081600;28;20020;-75
2021/12/20 09:18:20;;;;;;;20.38;4.47;;;8.40;99.90;;;;;;5078913;28;20025;-75
2021/12/20 09:20:46;;;;;;;26.40;4.68;;;8.20;99.90;;;;;;5081293;28;20081;-75
2021/12/20 09:23:13;;;;;;;21.90;4.55;;;8.30;99.90;;;;;;5079118;28;20039;-75
2021/12/20 09:25:43;;;;;;;18.05;3.65;;;8.40;99.90;;;;;;5081115;28;20024;-75
2021/12/20 09:28:12;;;;;;;20.67;4.70;;;8.50;99.90;;;;;;5078283;28;20036;-75
2021/12/20 09:30:40;;;;;;;23.30;4.07;;;8.50;99.90;;;;;;5084568;28;20032;-75
2021/12/20 09:33:06;;;;;;;24.73;4.53;;;8.50;99.90;;;;;;5082057;28;20131;-75
2021/12/20 09:35:33;;;;;;;20.42;4.60;;;8.50;99.90;;;;;;5079063;28;20103;-76
2021/12/20 09:37:59;;;;;;;21.23;3.78;;;8.50;99.90;;;;;;5082653;28;20031;-76
2021/12/20 09:40:33;;;;;;;25.27;4.47;;;8.50;99.90;;;;;;5088683;28;20384;-76
2021/12/20 09:43:04;;;;;;;19.40;4.10;;;8.50;99.90;;;;;;5090163;28;20464;-76
2021/12/20 09:45:31;;;;;;;24.80;5.25;;;8.50;99.90;;;;;;5081447;28;20839;-77
2021/12/20 09:47:57;;;;;;;28.23;5.03;;;8.60;99.90;;;;;;5081937;28;20029;-77
2021/12/20 09:50:24;;;;;;;26.45;4.53;;;8.60;99.90;;;;;;5082407;28;20031;-77
2021/12/20 09:52:49;;;;;;;19.83;4.60;;;8.60;99.90;;;;;;5081219;28;20061;-78
2021/12/20 09:55:16;;;;;;;23.00;4.50;;;8.60;99.90;;;;;;5081606;28;20028;-77
2021/12/20 09:57:45;;;;;;;23.80;4.57;;;8.60;99.90;;;;;;5078348;28;20032;-77
2021/12/20 10:00:13;;;;;;;19.30;4.40;;;8.60;99.90;;;;;;5077626;28;20081;-77
2021/12/20 10:02:39;;;;;;;24.73;4.97;;;8.60;99.90;;;;;;5075095;28;20127;-77
2021/12/20 10:05:05;;;;;;;23.70;4.28;;;8.60;99.90;;;;;;5086758;28;20114;-77
2021/12/20 10:07:32;;;;;;;18.73;3.92;;;8.70;99.90;;;;;;5091068;28;20476;-77
2021/12/20 10:10:00;;;;;;;17.83;3.88;;;8.70;99.90;;;;;;5083539;28;20031;-77
2021/12/20 10:12:27;;;;;;;25.08;4.47;;;8.60;99.90;;;;;;5078958;28;20029;-76
2021/12/20 10:15:00;;;;;;;25.50;4.90;;;8.60;99.90;;;;;;5072230;28;20152;-76
2021/12/20 10:17:30;;;;;;;19.65;4.72;;;8.70;99.90;;;;;;5068043;28;20503;-77
2021/12/20 10:20:12;;;;;;;22.73;3.95;;;8.70;99.90;;;;;;5087564;28;20020;-77
2021/12/20 10:22:37;;;;;;;20.60;4.15;;;8.80;99.90;;;;;;5078384;28;20035;-77
2021/12/20 10:25:22;;;;;;;17.58;5.03;;;8.80;99.90;;;;;;5084697;28;20391;-76
2021/12/20 10:27:47;;;;;;;20.15;4.28;;;8.80;99.90;;;;;;5078086;28;20052;-78
2021/12/20 10:30:31;;;;;;;28.60;4.85;;;8.80;99.90;;;;;;5080363;28;20518;-77
2021/12/20 10:32:58;;;;;;;22.50;4.38;;;8.80;99.90;;;;;;5079340;28;20028;-77
2021/12/20 10:35:27;;;;;;;18.20;4.13;;;8.90;99.90;;;;;;5085905;28;20031;-77
2021/12/20 10:38:05;;;;;;;21.00;3.95;;;8.80;99.90;;;;;;5077621;28;20064;-78
2021/12/20 10:40:32;;;;;;;18.40;4.40;;;8.80;99.90;;;;;;5077815;28;20020;-77
2021/12/20 10:42:59;;;;;;;20.27;3.95;;;8.80;99.90;;;;;;5075809;28;20058;-77
2021/12/20 10:45:26;;;;;;;18.95;4.10;;;8.90;99.90;;;;;;5075547;28;20025;-77
2021/12/20 10:47:53;;;;;;;22.67;3.83;;;8.90;99.90;;;;;;5088973;28;20380;-77
2021/12/20 10:50:31;;;;;;;24.63;4.05;;;8.80;99.90;;;;;;5087560;28;20472;-79
2021/12/20 10:53:23;;;;;;;19.48;3.85;;;8.90;99.90;;;;;;5078598;28;20389;-79
2021/12/20 10:55:58;;;;;;;17.20;3.55;;;8.90;99.90;;;;;;5080575;28;20021;-77
2021/12/20 10:58:49;;;;;;;22.58;3.90;;;9.00;99.90;;;;;;5079922;28;20048;-77
2021/12/20 11:04:05;;;;;;;26.50;3.90;;;8.80;99.90;;;;;;5081163;28;20048;-77
2021/12/20 11:09:20;;;;;;;21.50;4.38;;;8.80;99.90;;;;;;5082245;28;20055;-77
2021/12/20 11:11:51;;;;;;;23.27;4.00;;;8.90;99.90;;;;;;5081537;28;20564;-76
2021/12/20 11:14:19;;;;;;;19.90;4.13;;;8.90;99.90;;;;;;5074696;28;20031;-77
2021/12/20 11:16:49;;;;;;;24.63;4.43;;;8.90;99.90;;;;;;5083992;28;20016;-77
2021/12/20 11:19:17;;;;;;;16.85;4.85;;;9.00;99.90;;;;;;5077785;28;20373;-79
2021/12/20 11:22:01;;;;;;;18.63;4.00;;;9.00;99.90;;;;;;5080382;28;20032;-78
2021/12/20 11:24:36;;;;;;;22.30;3.60;;;9.00;99.90;;;;;;5076347;28;20028;-79
2021/12/20 11:27:06;;;;;;;23.27;4.60;;;9.10;99.90;;;;;;5081303;28;20399;-79
2021/12/20 11:29:34;;;;;;;24.05;4.43;;;9.10;99.90;;;;;;5078918;28;20032;-78
2021/12/20 11:32:00;;;;;;;20.80;4.00;;;9.10;99.90;;;;;;5080081;28;20040;-78
2021/12/20 11:34:27;;;;;;;18.70;3.80;;;9.20;99.90;;;;;;5083019;28;20112;-78
2021/12/20 11:36:54;;;;;;;28.73;4.53;;;9.20;99.90;;;;;;5082733;28;20028;-78
2021/12/20 11:39:20;;;;;;;25.80;4.65;;;9.10;99.90;;;;;;5085585;28;20024;-78
2021/12/20 11:41:46;;;;;;;22.17;4.63;;;9.20;99.90;;;;;;5083858;28;21111;-78
2021/12/20 11:44:19;;;;;;;25.25;4.55;;;9.10;99.90;;;;;;5086295;28;20020;-79
2021/12/20 11:46:54;;;;;;;19.00;4.60;;;9.10;99.90;;;;;;5085199;28;20028;-79
2021/12/20 11:49:21;;;;;;;28.02;4.63;;;9.10;99.90;;;;;;5090063;28;20032;-78
2021/12/20 11:52:01;;;;;;;22.92;4.85;;;9.10;99.90;;;;;;5087033;28;20031;-79
2021/12/20 11:54:45;;;;;;;14.68;3.90;;;9.00;99.90;;;;;;5090273;28;20028;-76
2021/12/20 11:57:34;;;;;;;24.40;4.35;;;9.10;99.90;;;;;;5089422;28;20380;-75
2021/12/20 12:00:06;;;;;;;25.95;4.55;;;9.10;99.90;;;;;;5086664;28;20028;-75
2021/12/20 12:02:33;;;;;;;23.70;5.28;;;9.30;99.90;;;;;;5084067;28;20399;-75
2021/12/20 12:05:36;;;;;;;23.70;4.60;;;9.30;99.90;;;;;;5090912;28;20024;-76
2021/12/20 12:08:41;;;;;;;30.85;5.68;;;9.30;99.90;;;;;;5080031;28;20039;-76
2021/12/20 12:11:07;;;;;;;25.35;4.10;;;9.30;99.90;;;;;;5031155;28;20469;-76
2021/12/20 12:13:50;;;;;;;20.15;4.95;;;9.40;99.90;;;;;;5049808;28;20109;-76
2021/12/20 12:16:37;;;;;;;;;;;9.40;99.90;;;;;;5066876;28;20040;-74
2021/12/20 12:19:03;;;;;;;20.42;4.40;;;9.30;99.90;;;;;;5085022;28;19908;-76
2021/12/20 12:21:40;;;;;;;21.45;4.88;;;9.20;99.90;;;;;;5082930;28;20138;-75
2021/12/20 12:24:11;;;;;;;20.75;5.00;;;9.20;99.90;;;;;;5084979;28;20482;-75
2021/12/20 12:26:50;;;;;;;22.65;5.70;;;9.20;99.90;;;;;;5086141;28;20027;-75
2021/12/20 12:29:19;;;;;;;23.30;5.28;;;9.30;99.90;;;;;;5086235;28;20495;-76
2021/12/20 12:31:58;;;;;;;25.52;5.28;;;9.20;99.90;;;;;;5079893;28;20559;-75
2021/12/20 12:34:44;;;;;;;23.13;4.40;;;9.20;99.90;;;;;;5088505;28;20024;-75
2021/12/20 12:37:29;;;;;;;20.42;4.60;;;9.00;99.90;;;;;;5084851;28;20077;-75
2021/12/20 12:40:24;;;;;;;21.00;4.32;;;8.90;99.90;;;;;;5088459;28;20019;-75
2021/12/20 12:42:55;;;;;;;28.45;4.78;;;9.10;99.90;;;;;;5090388;28;20016;-75
2021/12/20 12:45:48;;;;;;;30.23;5.32;;;9.10;99.90;;;;;;5080309;28;20025;-75
2021/12/20 12:48:50;;;;;;;26.17;5.47;;;9.10;99.90;;;;;;5083428;28;20427;-77
2021/12/20 12:51:18;;;;;;;21.50;4.38;;;9.00;99.90;;;;;;5085033;28;20035;-77
2021/12/20 12:53:48;;;;;;;21.25;4.22;;;9.10;99.90;;;;;;5083083;28;20085;-75
2021/12/20 12:56:30;;;;;;;18.58;4.72;;;9.20;99.90;;;;;;5079663;28;20480;-75
2021/12/20 12:59:17;;;;;;;19.38;5.55;;;9.20;99.90;;;;;;5083660;28;20131;-75
2021/12/20 13:01:46;;;;;;;22.50;4.53;;;9.30;99.90;;;;;;5080149;28;20059;-76
2021/12/20 13:04:12;;;;;;;24.05;4.40;;;9.30;99.90;;;;;;5083455;28;20040;-77
2021/12/20 13:06:37;;;;;;;19.88;4.15;;;9.30;99.90;;;;;;5080024;28;20024;-76